Time,TemperatureF,DewpointF,PressureIn,WindDirection,WindDirectionDegrees,WindSpeedMPH,WindSpeedGustMPH,Humidity,HourlyPrecipIn,Conditions,Clouds,dailyrainin,SoftwareType,DateUTC
2013-04-23 00:03:00,18.9,10.0,29.69,North,0,0.0,0.0,68,0.00,RA,,0.00,WeatherDisplay:10.37,2013-04-23 06:03:00,
2013-04-23 00:08:00,18.5,9.7,29.69,North,0,0.0,0.0,68,0.00,RA,,0.00,WeatherDisplay:10.37,2013-04-23 06:08:00,
2013-04-23 00:13:00,18.5,9.7,29.69,North,0,0.0,0.0,68,0.00,CLR,,0.00,WeatherDisplay:10.37,2013-04-23 06:13:00,
2013-04-23 00:18:00,18.3,9.8,29.67,North,0,0.0,0.0,69,0.00,CLR,,0.00,WeatherDisplay:10.37,2013-04-23 06:18:00,
2013-04-23 00:23:00,18.1,9.3,29.67,SSW,202,0.0,0.0,68,0.00,CLR,,0.00,WeatherDisplay:10.37,2013-04-23 06:23:00,
2013-04-23 00:28:00,18.1,9.3,29.67,North,0,0.0,0.0,68,0.00,CLR,,0.00,WeatherDisplay:10.37,2013-04-23 06:28:00,
2013-04-23 00:33:00,17.8,9.3,29.67,NE,45,0.0,0.0,69,0.00,CLR,,0.00,WeatherDisplay:10.37,2013-04-23 06:33:00,
2013-04-23 00:38:00,17.6,9.2,29.67,ENE,68,0.0,0.0,69,0.00,CLR,,0.00,WeatherDisplay:10.37,2013-04-23 06:38:00,
2013-04-23 00:43:00,17.4,9.0,29.67,ESE,112,0.0,0.0,69,0.00,CLR,,0.00,WeatherDisplay:10.37,2013-04-23 06:43:00,
2013-04-23 00:48:00,17.4,9.0,29.67,ESE,112,0.0,0.0,69,0.00,CLR,,0.00,WeatherDisplay:10.37,2013-04-23 06:48:00,
2013-04-23 00:53:00,17.2,8.8,29.67,North,0,0.0,0.0,69,0.00,CLR,,0.00,WeatherDisplay:10.37,2013-04-23 06:53:00,
2013-04-23 00:58:00,17.4,9.0,29.67,North,0,0.0,0.0,69,0.00,CLR,,0.00,WeatherDisplay:10.37,2013-04-23 06:58:00,
2013-04-23 01:03:00,17.1,8.6,29.67,North,0,0.0,0.0,69,0.00,CLR,,0.00,WeatherDisplay:10.37,2013-04-23 07:03:00,
2013-04-23 01:08:00,17.1,8.6,29.67,NNE,22,0.0,0.0,69,0.00,CLR,,0.00,WeatherDisplay:10.37,2013-04-23 07:08:00,
2013-04-23 01:13:00,16.9,8.5,29.67,North,0,0.0,0.0,69,0.00,CLR,,0.00,WeatherDisplay:10.37,2013-04-23 07:13:00,
2013-04-23 01:18:00,16.9,8.8,29.67,ENE,68,0.0,0.0,70,0.00,CLR,,0.00,WeatherDisplay:10.37,2013-04-23 07:18:00,
2013-04-23 01:23:00,16.7,8.6,29.67,North,0,0.0,0.0,70,0.00,CLR,,0.00,WeatherDisplay:10.37,2013-04-23 07:23:00,
2013-04-23 01:28:00,16.7,8.6,29.67,NE,45,0.0,0.0,70,0.00,CLR,,0.00,WeatherDisplay:10.37,2013-04-23 07:28:00,
2013-04-23 01:33:00,16.7,8.6,29.67,NE,45,0.0,0.0,70,0.00,CLR,,0.00,WeatherDisplay:10.37,2013-04-23 07:33:00,
2013-04-23 01:38:00,16.7,8.6,29.67,North,0,0.0,0.0,70,0.00,CLR,,0.00,WeatherDisplay:10.37,2013-04-23 07:38:00,
2013-04-23 01:43:00,16.3,8.3,29.67,NE,45,0.0,0.0,70,0.00,CLR,,0.00,WeatherDisplay:10.37,2013-04-23 07:43:00,
2013-04-23 01:48:00,16.3,8.3,29.67,East,90,0.0,0.0,70,0.00,CLR,,0.00,WeatherDisplay:10.37,2013-04-23 07:48:00,
2013-04-23 01:53:00,16.2,8.1,29.67,North,0,0.0,0.0,70,0.00,CLR,,0.00,WeatherDisplay:10.37,2013-04-23 07:53:00,
2013-04-23 01:58:00,16.3,8.3,29.67,North,0,0.0,0.0,70,0.00,CLR,,0.00,WeatherDisplay:10.37,2013-04-23 07:58:00,
2013-04-23 02:03:00,16.0,7.9,29.67,ENE,68,0.0,0.0,70,0.00,CLR,,0.00,WeatherDisplay:10.37,2013-04-23 08:03:00,
2013-04-23 02:08:00,16.0,7.9,29.67,NNE,22,0.0,0.0,70,0.00,CLR,,0.00,WeatherDisplay:10.37,2013-04-23 08:08:00,
2013-04-23 02:13:00,15.6,7.6,29.67,North,0,0.0,0.0,70,0.00,CLR,,0.00,WeatherDisplay:10.37,2013-04-23 08:13:00,
2013-04-23 02:18:00,16.0,7.9,29.67,North,0,0.0,0.0,70,0.00,CLR,,0.00,WeatherDisplay:10.37,2013-04-23 08:18:00,
2013-04-23 02:23:00,15.6,7.6,29.67,North,0,0.0,0.0,70,0.00,CLR,,0.00,WeatherDisplay:10.37,2013-04-23 08:23:00,
2013-04-23 02:28:00,15.6,7.6,29.67,North,0,0.0,0.0,70,0.00,CLR,,0.00,WeatherDisplay:10.37,2013-04-23 08:28:00,
2013-04-23 02:33:00,15.3,7.5,29.67,NNW,338,0.0,0.0,71,0.00,CLR,,0.00,WeatherDisplay:10.37,2013-04-23 08:33:00,
2013-04-23 02:38:00,15.3,7.5,29.66,NW,315,0.0,0.3,71,0.00,CLR,,0.00,WeatherDisplay:10.37,2013-04-23 08:38:00,
2013-04-23 02:43:00,15.3,7.5,29.66,East,90,0.0,0.3,71,0.00,CLR,,0.00,WeatherDisplay:10.37,2013-04-23 08:43:00,
2013-04-23 02:48:00,15.1,7.4,29.66,ENE,68,0.0,0.0,71,0.00,CLR,,0.00,WeatherDisplay:10.37,2013-04-23 08:48:00,
2013-04-23 02:53:00,15.3,7.5,29.66,NW,315,0.0,0.0,71,0.00,CLR,,0.00,WeatherDisplay:10.37,2013-04-23 08:53:00,
2013-04-23 02:58:00,14.9,7.2,29.65,ENE,68,0.0,0.0,71,0.00,CLR,,0.00,WeatherDisplay:10.37,2013-04-23 08:58:00,
2013-04-23 03:03:00,14.9,7.2,29.65,ENE,68,0.0,0.0,71,0.00,CLR,,0.00,WeatherDisplay:10.37,2013-04-23 09:03:00,
2013-04-23 03:08:00,14.7,7.0,29.65,North,0,0.0,0.0,71,0.00,CLR,,0.00,WeatherDisplay:10.37,2013-04-23 09:08:00,
2013-04-23 03:13:00,14.7,7.0,29.65,North,0,0.0,0.0,71,0.00,CLR,,0.00,WeatherDisplay:10.37,2013-04-23 09:13:00,
2013-04-23 03:18:00,14.9,7.2,29.65,North,0,0.0,0.0,71,0.00,CLR,,0.00,WeatherDisplay:10.37,2013-04-23 09:18:00,
2013-04-23 03:23:00,14.9,7.2,29.65,NE,45,0.0,0.0,71,0.00,CLR,,0.00,WeatherDisplay:10.37,2013-04-23 09:23:00,
2013-04-23 03:28:00,14.5,6.8,29.65,NE,45,0.0,0.0,71,0.00,CLR,,0.00,WeatherDisplay:10.37,2013-04-23 09:28:00,
2013-04-23 03:33:00,14.5,6.8,29.65,North,0,0.0,0.0,71,0.00,CLR,,0.00,WeatherDisplay:10.37,2013-04-23 09:33:00,
2013-04-23 03:38:00,14.5,6.8,29.65,North,0,0.0,0.0,71,0.00,CLR,,0.00,WeatherDisplay:10.37,2013-04-23 09:38:00,
2013-04-23 03:43:00,14.5,6.8,29.65,ENE,68,0.0,0.0,71,0.00,CLR,,0.00,WeatherDisplay:10.37,2013-04-23 09:43:00,
2013-04-23 03:48:00,14.2,6.8,29.65,ENE,68,0.0,0.0,72,0.00,CLR,,0.00,WeatherDisplay:10.37,2013-04-23 09:48:00,
2013-04-23 03:53:00,14.2,6.8,29.65,North,0,0.0,0.0,72,0.00,CLR,,0.00,WeatherDisplay:10.37,2013-04-23 09:53:00,
2013-04-23 03:58:00,14.2,6.8,29.64,ENE,68,0.0,0.0,72,0.00,CLR,,0.00,WeatherDisplay:10.37,2013-04-23 09:58:00,
2013-04-23 04:03:00,14.0,6.6,29.64,NE,45,0.0,0.0,72,0.00,CLR,,0.00,WeatherDisplay:10.37,2013-04-23 10:03:00,
2013-04-23 04:08:00,14.2,6.8,29.64,ENE,68,0.0,0.0,72,0.00,CLR,,0.00,WeatherDisplay:10.37,2013-04-23 10:08:00,
2013-04-23 04:13:00,14.2,6.8,29.64,ENE,68,0.0,0.0,72,0.00,CLR,,0.00,WeatherDisplay:10.37,2013-04-23 10:13:00,
2013-04-23 04:18:00,14.0,6.6,29.64,North,0,0.0,0.0,72,0.00,CLR,,0.00,WeatherDisplay:10.37,2013-04-23 10:18:00,
2013-04-23 04:23:00,14.0,6.6,29.64,NNW,338,0.0,0.0,72,0.00,CLR,,0.00,WeatherDisplay:10.37,2013-04-23 10:23:00,
2013-04-23 04:28:00,14.0,6.6,29.64,ENE,68,0.0,0.0,72,0.00,CLR,,0.00,WeatherDisplay:10.37,2013-04-23 10:28:00,
2013-04-23 04:33:00,14.0,6.6,29.64,NE,45,0.0,0.0,72,0.00,CLR,,0.00,WeatherDisplay:10.37,2013-04-23 10:33:00,
2013-04-23 04:38:00,14.0,6.6,29.64,NNW,338,0.0,0.0,72,0.00,CLR,,0.00,WeatherDisplay:10.37,2013-04-23 10:38:00,
2013-04-23 04:43:00,13.8,6.5,29.64,North,0,0.0,0.0,72,0.00,CLR,,0.00,WeatherDisplay:10.37,2013-04-23 10:43:00,
2013-04-23 04:48:00,13.8,6.5,29.64,NE,45,0.0,0.0,72,0.00,CLR,,0.00,WeatherDisplay:10.37,2013-04-23 10:48:00,
2013-04-23 04:53:00,13.8,6.5,29.64,NNW,338,0.0,0.0,72,0.00,CLR,,0.00,WeatherDisplay:10.37,2013-04-23 10:53:00,
2013-04-23 04:58:00,13.8,6.5,29.64,North,0,0.0,0.0,72,0.00,CLR,,0.00,WeatherDisplay:10.37,2013-04-23 10:58:00,
2013-04-23 05:03:00,13.8,6.5,29.64,NE,45,0.0,0.0,72,0.00,CLR,,0.00,WeatherDisplay:10.37,2013-04-23 11:03:00,
2013-04-23 05:08:00,13.6,6.3,29.64,North,0,0.0,0.0,72,0.00,CLR,,0.00,WeatherDisplay:10.37,2013-04-23 11:08:00,
2013-04-23 05:13:00,13.8,6.5,29.64,North,0,0.0,0.0,72,0.00,CLR,,0.00,WeatherDisplay:10.37,2013-04-23 11:13:00,
2013-04-23 05:18:00,13.5,6.1,29.65,NNW,338,1.1,1.1,72,0.00,CLR,,0.00,WeatherDisplay:10.37,2013-04-23 11:18:00,
2013-04-23 05:23:00,13.5,6.1,29.65,NNW,338,0.0,0.1,72,0.00,CLR,,0.00,WeatherDisplay:10.37,2013-04-23 11:23:00,
2013-04-23 05:28:00,13.5,6.4,29.65,NE,45,0.0,0.0,73,0.00,CLR,,0.00,WeatherDisplay:10.37,2013-04-23 11:28:00,
2013-04-23 05:33:00,13.5,6.4,29.65,NNE,22,0.0,0.0,73,0.00,CLR,,0.00,WeatherDisplay:10.37,2013-04-23 11:33:00,
2013-04-23 05:38:00,13.3,6.2,29.64,North,0,0.0,0.0,73,0.00,CLR,,0.00,WeatherDisplay:10.37,2013-04-23 11:38:00,
2013-04-23 05:43:00,13.1,6.1,29.64,NNE,22,0.0,0.0,73,0.00,CLR,,0.00,WeatherDisplay:10.37,2013-04-23 11:43:00,
2013-04-23 05:48:00,13.1,6.1,29.64,ENE,68,0.0,0.0,73,0.00,CLR,,0.00,WeatherDisplay:10.37,2013-04-23 11:48:00,
2013-04-23 05:53:00,13.1,6.1,29.64,NNW,338,0.0,0.0,73,0.00,CLR,,0.00,WeatherDisplay:10.37,2013-04-23 11:53:00,
2013-04-23 05:58:00,13.1,6.1,29.64,ENE,68,0.0,0.0,73,0.00,CLR,,0.00,WeatherDisplay:10.37,2013-04-23 11:58:00,
2013-04-23 06:03:00,13.1,6.1,29.64,WSW,248,0.0,0.0,73,0.00,CLR,,0.00,WeatherDisplay:10.37,2013-04-23 12:03:00,
2013-04-23 06:08:00,13.1,6.1,29.64,NE,45,0.0,0.0,73,0.00,CLR,,0.00,WeatherDisplay:10.37,2013-04-23 12:08:00,
2013-04-23 06:13:00,12.9,5.9,29.64,North,0,0.0,0.0,73,0.00,CLR,,0.00,WeatherDisplay:10.37,2013-04-23 12:13:00,
2013-04-23 06:18:00,13.1,6.1,29.63,North,0,0.0,0.0,73,0.00,CLR,,0.00,WeatherDisplay:10.37,2013-04-23 12:18:00,
2013-04-23 06:23:00,13.1,6.1,29.63,NNW,338,0.0,0.0,73,0.00,CLR,,0.00,WeatherDisplay:10.37,2013-04-23 12:23:00,
2013-04-23 06:28:00,13.1,6.1,29.63,NNE,22,0.0,0.0,73,0.00,CLR,,0.00,WeatherDisplay:10.37,2013-04-23 12:28:00,
2013-04-23 06:33:00,12.7,5.7,29.63,North,0,0.0,0.0,73,0.00,CLR,,0.00,WeatherDisplay:10.37,2013-04-23 12:33:00,
2013-04-23 06:38:00,13.1,6.1,29.63,NE,45,0.0,0.0,73,0.00,CLR,,0.00,WeatherDisplay:10.37,2013-04-23 12:38:00,
2013-04-23 06:43:00,13.1,6.1,29.63,NNE,22,0.0,0.0,73,0.00,CLR,,0.00,WeatherDisplay:10.37,2013-04-23 12:43:00,
2013-04-23 06:48:00,13.1,6.1,29.63,SSW,202,0.0,0.0,73,0.00,CLR,,0.00,WeatherDisplay:10.37,2013-04-23 12:48:00,
2013-04-23 06:53:00,13.1,6.1,29.63,ENE,68,0.0,0.0,73,0.00,CLR,,0.00,WeatherDisplay:10.37,2013-04-23 12:53:00,
2013-04-23 06:58:00,13.1,6.1,29.61,NNW,338,0.0,0.0,73,0.00,CLR,,0.00,WeatherDisplay:10.37,2013-04-23 12:58:00,
2013-04-23 07:03:00,13.1,6.1,29.61,SE,135,0.0,0.0,73,0.00,CLR,,0.00,WeatherDisplay:10.37,2013-04-23 13:03:00,
2013-04-23 07:08:00,13.1,6.1,29.61,North,0,0.0,0.0,73,0.00,CLR,,0.00,WeatherDisplay:10.37,2013-04-23 13:08:00,
2013-04-23 07:13:00,13.3,6.2,29.61,NNW,338,0.0,0.0,73,0.00,CLR,,0.00,WeatherDisplay:10.37,2013-04-23 13:13:00,
2013-04-23 07:18:00,13.5,6.4,29.61,SE,135,0.0,0.0,73,0.00,CLR,,0.00,WeatherDisplay:10.37,2013-04-23 13:18:00,
2013-04-23 07:23:00,13.8,6.8,29.61,North,0,0.0,0.0,73,0.00,CLR,,0.00,WeatherDisplay:10.37,2013-04-23 13:23:00,
2013-04-23 07:28:00,13.8,6.8,29.61,NNW,338,0.0,0.0,73,0.00,CLR,,0.00,WeatherDisplay:10.37,2013-04-23 13:28:00,
2013-04-23 07:33:00,13.8,6.8,29.61,ENE,68,0.0,0.0,73,0.00,CLR,,0.00,WeatherDisplay:10.37,2013-04-23 13:33:00,
2013-04-23 07:38:00,14.2,7.4,29.62,North,0,0.0,0.0,74,0.00,CLR,,0.00,WeatherDisplay:10.37,2013-04-23 13:38:00,
2013-04-23 07:43:00,14.5,7.8,29.62,WNW,292,0.0,0.0,74,0.00,CLR,,0.00,WeatherDisplay:10.37,2013-04-23 13:43:00,
2013-04-23 07:48:00,14.5,7.8,29.62,NW,315,0.0,0.0,74,0.00,CLR,,0.00,WeatherDisplay:10.37,2013-04-23 13:48:00,
2013-04-23 07:53:00,14.7,7.9,29.62,NW,315,0.0,0.0,74,0.00,CLR,,0.00,WeatherDisplay:10.37,2013-04-23 13:53:00,
2013-04-23 07:58:00,15.3,8.5,29.63,NW,315,0.0,0.0,74,0.00,CLR,,0.00,WeatherDisplay:10.37,2013-04-23 13:58:00,
2013-04-23 08:03:00,15.4,8.6,29.63,North,0,0.0,0.0,74,0.00,CLR,,0.00,WeatherDisplay:10.37,2013-04-23 14:03:00,
2013-04-23 08:08:00,16.2,9.3,29.63,West,270,0.0,0.0,74,0.00,CLR,,0.00,WeatherDisplay:10.37,2013-04-23 14:08:00,
2013-04-23 08:13:00,16.3,9.5,29.63,North,0,0.0,0.0,74,0.00,CLR,,0.00,WeatherDisplay:10.37,2013-04-23 14:13:00,
2013-04-23 08:18:00,16.9,10.3,29.67,WNW,292,0.0,0.0,75,0.00,CLR,,0.00,WeatherDisplay:10.37,2013-04-23 14:18:00,
2013-04-23 08:23:00,17.4,10.8,29.67,North,0,0.0,0.0,75,0.00,CLR,,0.00,WeatherDisplay:10.37,2013-04-23 14:23:00,
2013-04-23 08:28:00,17.8,11.2,29.67,WNW,292,0.0,0.0,75,0.00,CLR,,0.00,WeatherDisplay:10.37,2013-04-23 14:28:00,
2013-04-23 08:33:00,18.1,11.5,29.67,NW,315,0.0,0.0,75,0.00,CLR,,0.00,WeatherDisplay:10.37,2013-04-23 14:33:00,
2013-04-23 08:38:00,18.9,12.2,29.68,North,0,0.0,0.0,75,0.00,CLR,,0.00,WeatherDisplay:10.37,2013-04-23 14:38:00,
2013-04-23 08:43:00,19.2,12.6,29.68,WNW,292,0.0,0.0,75,0.00,CLR,,0.00,WeatherDisplay:10.37,2013-04-23 14:43:00,
2013-04-23 08:48:00,19.9,13.3,29.68,WSW,248,0.0,0.0,75,0.00,CLR,,0.00,WeatherDisplay:10.37,2013-04-23 14:48:00,
2013-04-23 08:53:00,20.7,14.3,29.68,SW,225,0.0,0.0,76,0.00,CLR,,0.00,WeatherDisplay:10.37,2013-04-23 14:53:00,
2013-04-23 08:58:00,21.7,15.0,29.69,SW,225,0.0,0.0,75,0.00,CLR,,0.00,WeatherDisplay:10.37,2013-04-23 14:58:00,
2013-04-23 09:03:00,22.5,16.0,29.69,SW,225,0.0,0.0,76,0.00,CLR,,0.00,WeatherDisplay:10.37,2013-04-23 15:03:00,
2013-04-23 09:08:00,23.5,16.8,29.69,SW,225,0.0,0.0,75,0.00,CLR,,0.00,WeatherDisplay:10.37,2013-04-23 15:08:00,
2013-04-23 09:13:00,24.1,17.0,29.69,WSW,248,0.0,0.0,74,0.00,CLR,,0.00,WeatherDisplay:10.37,2013-04-23 15:13:00,
2013-04-23 09:18:00,24.8,17.4,29.68,SW,225,0.0,0.0,73,0.00,CLR,,0.00,WeatherDisplay:10.37,2013-04-23 15:18:00,
2013-04-23 09:23:00,25.3,17.9,29.68,WNW,292,0.0,0.0,73,0.00,CLR,,0.00,WeatherDisplay:10.37,2013-04-23 15:23:00,
2013-04-23 09:28:00,25.3,17.6,29.68,WNW,292,0.0,0.0,72,0.00,CLR,,0.00,WeatherDisplay:10.37,2013-04-23 15:28:00,
2013-04-23 09:33:00,25.5,17.7,29.68,West,270,0.0,0.0,72,0.00,CLR,,0.00,WeatherDisplay:10.37,2013-04-23 15:33:00,
2013-04-23 09:38:00,26.1,18.3,29.68,WSW,248,0.0,0.0,72,0.00,CLR,,0.00,WeatherDisplay:10.37,2013-04-23 15:38:00,
2013-04-23 09:43:00,26.4,18.6,29.68,WSW,248,0.0,0.0,72,0.00,CLR,,0.00,WeatherDisplay:10.37,2013-04-23 15:43:00,
2013-04-23 09:48:00,27.1,19.0,29.68,WNW,292,0.0,0.0,71,0.00,CLR,,0.00,WeatherDisplay:10.37,2013-04-23 15:48:00,
2013-04-23 09:53:00,27.5,19.0,29.68,West,270,0.0,0.0,70,0.00,CLR,,0.00,WeatherDisplay:10.37,2013-04-23 15:53:00,
2013-04-23 09:58:00,28.2,19.7,29.67,WNW,292,0.0,0.0,70,0.00,CLR,,0.00,WeatherDisplay:10.37,2013-04-23 15:58:00,
2013-04-23 10:03:00,28.9,20.4,29.67,WNW,292,0.0,0.0,70,0.00,CLR,,0.00,WeatherDisplay:10.37,2013-04-23 16:03:00,
2013-04-23 10:08:00,29.3,20.4,29.67,WNW,292,0.0,0.0,69,0.00,CLR,,0.00,WeatherDisplay:10.37,2013-04-23 16:08:00,
2013-04-23 10:13:00,29.8,20.9,29.67,WNW,292,0.0,0.0,69,0.00,CLR,,0.00,WeatherDisplay:10.37,2013-04-23 16:13:00,
2013-04-23 10:18:00,30.4,21.4,29.67,NW,315,0.0,0.0,69,0.00,CLR,,0.00,WeatherDisplay:10.37,2013-04-23 16:18:00,
2013-04-23 10:23:00,31.1,21.8,29.67,WNW,292,0.0,0.0,68,0.00,CLR,,0.00,WeatherDisplay:10.37,2013-04-23 16:23:00,
2013-04-23 10:28:00,31.5,21.4,29.67,NW,315,0.0,0.0,66,0.00,CLR,,0.00,WeatherDisplay:10.37,2013-04-23 16:28:00,
2013-04-23 10:33:00,31.8,21.7,29.67,WNW,292,0.0,0.0,66,0.00,CLR,,0.00,WeatherDisplay:10.37,2013-04-23 16:33:00,
2013-04-23 10:39:00,32.4,21.9,29.67,West,270,0.0,0.0,65,0.00,CLR,,0.00,WeatherDisplay:10.37,2013-04-23 16:39:00,
2013-04-23 10:44:00,32.9,21.7,29.67,ENE,68,0.0,0.0,63,0.00,CLR,,0.00,WeatherDisplay:10.37,2013-04-23 16:44:00,
2013-04-23 10:49:00,33.3,22.4,29.67,WSW,248,0.0,0.0,64,0.00,CLR,,0.00,WeatherDisplay:10.37,2013-04-23 16:49:00,
2013-04-23 10:54:00,33.6,22.0,29.67,SW,225,0.0,0.0,62,0.00,CLR,,0.00,WeatherDisplay:10.37,2013-04-23 16:54:00,
2013-04-23 10:59:00,34.2,21.7,29.66,WSW,248,0.0,0.0,60,0.00,CLR,,0.00,WeatherDisplay:10.37,2013-04-23 16:59:00,
2013-04-23 11:04:00,34.7,22.2,29.66,East,90,0.0,0.0,60,0.00,CLR,,0.00,WeatherDisplay:10.37,2013-04-23 17:04:00,
2013-04-23 11:09:00,34.7,22.6,29.66,East,90,3.5,3.5,61,0.00,CLR,,0.00,WeatherDisplay:10.37,2013-04-23 17:09:00,
2013-04-23 11:14:00,35.1,22.6,29.66,South,180,0.0,0.7,60,0.00,CLR,,0.00,WeatherDisplay:10.37,2013-04-23 17:14:00,
2013-04-23 11:19:00,35.4,22.1,29.65,SSW,202,0.0,0.7,58,0.00,CLR,,0.00,WeatherDisplay:10.37,2013-04-23 17:19:00,
2013-04-23 11:24:00,35.8,22.4,29.65,SE,135,0.0,0.0,58,0.00,CLR,,0.00,WeatherDisplay:10.37,2013-04-23 17:24:00,
2013-04-23 11:29:00,36.0,22.2,29.65,WSW,248,0.0,0.0,57,0.00,CLR,,0.00,WeatherDisplay:10.37,2013-04-23 17:29:00,
2013-04-23 11:34:00,36.3,21.2,29.65,SW,225,0.0,0.6,54,0.00,CLR,,0.00,WeatherDisplay:10.37,2013-04-23 17:34:00,
2013-04-23 11:39:00,36.9,21.3,29.65,SW,225,3.5,3.5,53,0.00,CLR,,0.00,WeatherDisplay:10.37,2013-04-23 17:39:00,
2013-04-23 11:44:00,37.6,23.7,29.65,NW,315,0.0,1.7,57,0.00,CLR,,0.00,WeatherDisplay:10.37,2013-04-23 17:44:00,
2013-04-23 11:49:00,37.8,23.5,29.65,NW,315,0.0,0.6,56,0.00,CLR,,0.00,WeatherDisplay:10.37,2013-04-23 17:49:00,
2013-04-23 11:54:00,38.5,24.1,29.65,WNW,292,0.0,0.0,56,0.00,CLR,,0.00,WeatherDisplay:10.37,2013-04-23 17:54:00,
2013-04-23 11:59:00,39.2,25.2,29.65,WNW,292,0.0,0.0,57,0.00,CLR,,0.00,WeatherDisplay:10.37,2013-04-23 17:59:00,
2013-04-23 12:04:00,39.4,25.0,29.65,WSW,248,0.0,0.0,56,0.00,CLR,,0.00,WeatherDisplay:10.37,2013-04-23 18:04:00,
2013-04-23 12:09:00,39.9,25.0,29.65,East,90,2.9,2.9,55,0.00,CLR,,0.00,WeatherDisplay:10.37,2013-04-23 18:09:00,
2013-04-23 12:14:00,40.1,24.8,29.65,NE,45,0.0,0.3,54,0.00,CLR,,0.00,WeatherDisplay:10.37,2013-04-23 18:14:00,
2013-04-23 12:19:00,40.8,26.3,29.64,NNW,338,0.0,0.3,56,0.00,CLR,,0.00,WeatherDisplay:10.37,2013-04-23 18:19:00,
2013-04-23 12:24:00,42.3,28.5,29.64,North,0,3.5,3.5,58,0.00,CLR,,0.00,WeatherDisplay:10.37,2013-04-23 18:24:00,
2013-04-23 12:29:00,43.0,26.5,29.64,West,270,0.0,0.2,52,0.00,CLR,,0.00,WeatherDisplay:10.37,2013-04-23 18:29:00,
2013-04-23 12:34:00,43.5,25.6,29.64,NE,45,4.6,4.6,49,0.03,RA,,0.03,WeatherDisplay:10.37,2013-04-23 18:34:00,
2013-04-23 12:39:00,44.1,26.1,29.64,NNW,338,2.3,2.3,49,0.03,RA,,0.03,WeatherDisplay:10.37,2013-04-23 18:39:00,
2013-04-23 12:44:00,44.1,25.1,29.64,WNW,292,4.6,4.6,47,0.03,,,0.03,WeatherDisplay:10.37,2013-04-23 18:44:00,
2013-04-23 12:49:00,44.4,23.8,29.64,WSW,248,3.5,3.5,44,0.03,CLR,,0.03,WeatherDisplay:10.37,2013-04-23 18:49:00,
2013-04-23 12:54:00,45.0,25.4,29.64,SW,225,3.5,3.5,46,0.03,CLR,,0.03,WeatherDisplay:10.37,2013-04-23 18:54:00,
2013-04-23 12:59:00,45.1,23.4,29.63,SSE,158,3.5,3.5,42,0.03,CLR,,0.03,WeatherDisplay:10.37,2013-04-23 18:59:00,
2013-04-23 13:04:00,45.9,27.3,29.63,NE,45,1.1,2.3,48,0.03,CLR,,0.03,WeatherDisplay:10.37,2013-04-23 19:04:00,
2013-04-23 13:09:00,46.6,25.8,29.63,ESE,112,8.1,8.1,44,0.03,CLR,,0.03,WeatherDisplay:10.37,2013-04-23 19:09:00,
2013-04-23 13:14:00,46.2,23.2,29.63,SSW,202,5.8,5.8,40,0.03,CLR,,0.03,WeatherDisplay:10.37,2013-04-23 19:14:00,
2013-04-23 13:19:00,46.2,24.9,29.64,ENE,68,5.8,5.8,43,0.03,CLR,,0.03,WeatherDisplay:10.37,2013-04-23 19:19:00,
2013-04-23 13:24:00,47.1,25.7,29.64,SW,225,0.0,3.1,43,0.03,CLR,,0.03,WeatherDisplay:10.37,2013-04-23 19:24:00,
2013-04-23 13:29:00,46.8,24.9,29.64,SE,135,2.3,2.3,42,0.03,CLR,,0.03,WeatherDisplay:10.37,2013-04-23 19:29:00,
2013-04-23 13:34:00,46.9,23.8,29.64,SE,135,2.3,2.3,40,0.00,CLR,,0.03,WeatherDisplay:10.37,2013-04-23 19:34:00,
2013-04-23 13:39:00,46.6,23.5,29.62,East,90,8.1,8.1,40,0.00,CLR,,0.03,WeatherDisplay:10.37,2013-04-23 19:39:00,
2013-04-23 13:44:00,46.6,24.1,29.62,WSW,248,2.3,3.1,41,0.00,CLR,,0.03,WeatherDisplay:10.37,2013-04-23 19:44:00,
2013-04-23 13:49:00,46.8,23.1,29.62,East,90,1.1,2.5,39,0.00,CLR,,0.03,WeatherDisplay:10.37,2013-04-23 19:49:00,
2013-04-23 13:54:00,46.9,24.4,29.62,ESE,112,0.0,0.8,41,0.00,CLR,,0.03,WeatherDisplay:10.37,2013-04-23 19:54:00,
2013-04-23 13:59:00,47.3,24.8,29.62,SSW,202,0.0,0.6,41,0.00,CLR,,0.03,WeatherDisplay:10.37,2013-04-23 19:59:00,
2013-04-23 14:04:00,46.9,24.4,29.62,SSW,202,4.6,4.6,41,0.00,CLR,,0.03,WeatherDisplay:10.37,2013-04-23 20:04:00,
2013-04-23 14:09:00,46.9,25.0,29.62,SSW,202,2.3,2.6,42,0.00,CLR,,0.03,WeatherDisplay:10.37,2013-04-23 20:09:00,
2013-04-23 14:14:00,47.1,25.7,29.62,NW,315,3.5,3.5,43,0.00,CLR,,0.03,WeatherDisplay:10.37,2013-04-23 20:14:00,
2013-04-23 14:19:00,47.3,25.3,29.62,ESE,112,4.6,4.6,42,0.00,CLR,,0.03,WeatherDisplay:10.37,2013-04-23 20:19:00,
2013-04-23 14:24:00,47.8,28.0,29.62,ENE,68,6.9,6.9,46,0.00,CLR,,0.03,WeatherDisplay:10.37,2013-04-23 20:24:00,
2013-04-23 14:29:00,48.6,29.2,29.62,ENE,68,9.2,9.2,47,0.00,CLR,,0.03,WeatherDisplay:10.37,2013-04-23 20:29:00,
2013-04-23 14:34:00,49.1,28.7,29.62,SSW,202,0.0,2.4,45,0.00,CLR,,0.03,WeatherDisplay:10.37,2013-04-23 20:34:00,
2013-04-23 14:39:00,49.3,27.7,29.62,SSW,202,0.0,0.5,43,0.00,CLR,,0.03,WeatherDisplay:10.37,2013-04-23 20:39:00,
2013-04-23 14:44:00,49.5,28.4,29.62,SSW,202,0.0,0.2,44,0.00,CLR,,0.03,WeatherDisplay:10.37,2013-04-23 20:44:00,
2013-04-23 14:49:00,49.8,28.2,29.62,WSW,248,1.1,1.1,43,0.00,CLR,,0.03,WeatherDisplay:10.37,2013-04-23 20:49:00,
2013-04-23 14:54:00,49.1,25.8,29.62,ENE,68,2.3,2.3,40,0.00,CLR,,0.03,WeatherDisplay:10.37,2013-04-23 20:54:00,
2013-04-23 14:59:00,48.4,23.9,29.62,SE,135,6.9,6.9,38,0.00,CLR,,0.03,WeatherDisplay:10.37,2013-04-23 20:59:00,
2013-04-23 15:04:00,48.0,24.8,29.62,SE,135,2.3,2.3,40,0.00,CLR,,0.03,WeatherDisplay:10.37,2013-04-23 21:04:00,
2013-04-23 15:09:00,47.8,24.7,29.62,SE,135,3.5,3.5,40,0.00,CLR,,0.03,WeatherDisplay:10.37,2013-04-23 21:09:00,
2013-04-23 15:14:00,48.0,24.2,29.62,East,90,2.3,2.3,39,0.00,CLR,,0.03,WeatherDisplay:10.37,2013-04-23 21:14:00,
2013-04-23 15:19:00,48.0,26.0,29.62,SSW,202,2.3,2.3,42,0.00,CLR,,0.03,WeatherDisplay:10.37,2013-04-23 21:19:00,
2013-04-23 15:24:00,48.2,26.2,29.62,WNW,292,0.0,1.6,42,0.00,CLR,,0.03,WeatherDisplay:10.37,2013-04-23 21:24:00,
2013-04-23 15:29:00,48.4,26.9,29.62,WSW,248,2.3,2.3,43,0.00,CLR,,0.03,WeatherDisplay:10.37,2013-04-23 21:29:00,
2013-04-23 15:34:00,48.4,25.7,29.62,SSE,158,4.6,4.6,41,0.00,CLR,,0.03,WeatherDisplay:10.37,2013-04-23 21:34:00,
2013-04-23 15:39:00,47.1,24.0,29.62,SSW,202,6.9,6.9,40,0.00,CLR,,0.03,WeatherDisplay:10.37,2013-04-23 21:39:00,
2013-04-23 15:44:00,47.1,25.2,29.62,East,90,6.9,6.9,42,0.00,CLR,,0.03,WeatherDisplay:10.37,2013-04-23 21:44:00,
2013-04-23 15:49:00,46.8,24.9,29.62,WSW,248,4.6,4.6,42,0.00,CLR,,0.03,WeatherDisplay:10.37,2013-04-23 21:49:00,
2013-04-23 15:54:00,46.6,24.7,29.62,South,180,5.3,5.3,42,0.00,CLR,,0.03,WeatherDisplay:10.37,2013-04-23 21:54:00,
2013-04-23 15:59:00,46.4,24.5,29.62,SSE,158,2.3,2.3,42,0.00,CLR,,0.03,WeatherDisplay:10.37,2013-04-23 21:59:00,
2013-04-23 16:04:00,46.2,24.4,29.62,NE,45,3.5,3.5,42,0.00,CLR,,0.03,WeatherDisplay:10.37,2013-04-23 22:04:00,
2013-04-23 16:09:00,45.7,24.4,29.62,ESE,112,5.8,5.8,43,0.00,CLR,,0.03,WeatherDisplay:10.37,2013-04-23 22:09:00,
2013-04-23 16:14:00,45.3,24.1,29.62,SSW,202,1.1,1.6,43,0.00,CLR,,0.03,WeatherDisplay:10.37,2013-04-23 22:14:00,
2013-04-23 16:19:00,45.1,23.9,29.61,SW,225,3.5,3.5,43,0.00,CLR,,0.03,WeatherDisplay:10.37,2013-04-23 22:19:00,
2013-04-23 16:24:00,44.6,24.0,29.61,SSW,202,2.3,2.3,44,0.00,CLR,,0.03,WeatherDisplay:10.37,2013-04-23 22:24:00,
2013-04-23 16:29:00,44.1,23.5,29.61,East,90,2.3,2.3,44,0.00,CLR,,0.03,WeatherDisplay:10.37,2013-04-23 22:29:00,
2013-04-23 16:34:00,43.5,23.6,29.61,North,0,0.0,1.1,45,0.00,CLR,,0.03,WeatherDisplay:10.37,2013-04-23 22:34:00,
2013-04-23 16:39:00,43.3,23.4,29.60,South,180,3.5,3.5,45,0.00,CLR,,0.03,WeatherDisplay:10.37,2013-04-23 22:39:00,
2013-04-23 16:44:00,43.3,22.9,29.60,SW,225,4.6,4.6,44,0.00,CLR,,0.03,WeatherDisplay:10.37,2013-04-23 22:44:00,
2013-04-23 16:49:00,42.8,22.4,29.60,SSE,158,3.5,3.5,44,0.00,CLR,,0.03,WeatherDisplay:10.37,2013-04-23 22:49:00,
2013-04-23 16:54:00,42.8,22.4,29.60,SSW,202,0.0,0.8,44,0.00,CLR,,0.03,WeatherDisplay:10.37,2013-04-23 22:54:00,
2013-04-23 16:59:00,43.0,22.0,29.60,SSW,202,2.3,2.3,43,0.00,CLR,,0.03,WeatherDisplay:10.37,2013-04-23 22:59:00,
2013-04-23 17:04:00,43.2,23.2,29.60,SSW,202,2.3,2.3,45,0.00,CLR,,0.03,WeatherDisplay:10.37,2013-04-23 23:04:00,
2013-04-23 17:09:00,43.3,22.3,29.60,NE,45,4.6,4.6,43,0.00,CLR,,0.03,WeatherDisplay:10.37,2013-04-23 23:09:00,
2013-04-23 17:14:00,43.0,21.4,29.60,SE,135,2.3,2.3,42,0.00,CLR,,0.03,WeatherDisplay:10.37,2013-04-23 23:14:00,
2013-04-23 17:19:00,43.3,21.8,29.59,East,90,3.5,3.5,42,0.00,CLR,,0.03,WeatherDisplay:10.37,2013-04-23 23:19:00,
2013-04-23 17:24:00,43.3,20.6,29.59,WSW,248,1.7,1.7,40,0.00,CLR,,0.03,WeatherDisplay:10.37,2013-04-23 23:24:00,
2013-04-23 17:29:00,43.5,19.6,29.59,SSW,202,4.6,4.6,38,0.00,CLR,,0.03,WeatherDisplay:10.37,2013-04-23 23:29:00,
2013-04-23 17:34:00,44.1,20.7,29.59,SW,225,3.2,3.2,39,0.00,CLR,,0.03,WeatherDisplay:10.37,2013-04-23 23:34:00,
2013-04-23 17:39:00,44.8,22.5,29.59,NE,45,3.7,3.7,41,0.00,CLR,,0.03,WeatherDisplay:10.37,2013-04-23 23:39:00,
2013-04-23 17:44:00,45.1,21.6,29.59,South,180,2.3,2.3,39,0.00,CLR,,0.03,WeatherDisplay:10.37,2013-04-23 23:44:00,
2013-04-23 17:49:00,45.5,21.9,29.59,SSW,202,4.6,4.6,39,0.00,CLR,,0.03,WeatherDisplay:10.37,2013-04-23 23:49:00,
2013-04-23 17:54:00,45.9,22.3,29.59,NE,45,4.6,4.6,39,0.00,CLR,,0.03,WeatherDisplay:10.37,2013-04-23 23:54:00,
2013-04-23 17:59:00,46.4,23.9,29.59,ENE,68,4.3,4.3,41,0.00,CLR,,0.03,WeatherDisplay:10.37,2013-04-23 23:59:00,
2013-04-23 18:04:00,46.9,22.0,29.59,SW,225,3.5,3.5,37,0.00,CLR,,0.03,WeatherDisplay:10.37,2013-04-24 00:04:00,
2013-04-23 18:09:00,47.3,23.6,29.59,ENE,68,4.0,4.0,39,0.00,CLR,,0.03,WeatherDisplay:10.37,2013-04-24 00:09:00,
2013-04-23 18:14:00,47.3,24.2,29.59,SE,135,5.2,5.2,40,0.00,CLR,,0.03,WeatherDisplay:10.37,2013-04-24 00:14:00,
2013-04-23 18:19:00,47.3,24.2,29.59,SSW,202,8.1,8.1,40,0.00,CLR,,0.03,WeatherDisplay:10.37,2013-04-24 00:19:00,
2013-04-23 18:24:00,47.1,22.8,29.59,SSW,202,3.5,3.5,38,0.00,CLR,,0.03,WeatherDisplay:10.37,2013-04-24 00:24:00,
2013-04-23 18:29:00,46.8,22.5,29.59,SSE,158,1.1,3.1,38,0.00,CLR,,0.03,WeatherDisplay:10.37,2013-04-24 00:29:00,
2013-04-23 18:34:00,46.4,22.1,29.59,West,270,2.3,2.4,38,0.00,CLR,,0.03,WeatherDisplay:10.37,2013-04-24 00:34:00,
2013-04-23 18:39:00,45.9,21.7,29.59,SSW,202,4.6,4.6,38,0.00,CLR,,0.03,WeatherDisplay:10.37,2013-04-24 00:39:00,
2013-04-23 18:44:00,45.7,22.1,29.59,South,180,6.9,6.9,39,0.00,CLR,,0.03,WeatherDisplay:10.37,2013-04-24 00:44:00,
2013-04-23 18:49:00,45.5,20.1,29.59,South,180,1.1,1.1,36,0.00,CLR,,0.03,WeatherDisplay:10.37,2013-04-24 00:49:00,
2013-04-23 18:54:00,45.1,21.0,29.59,East,90,4.6,4.6,38,0.00,CLR,,0.03,WeatherDisplay:10.37,2013-04-24 00:54:00,
2013-04-23 18:59:00,44.6,19.9,29.57,WNW,292,3.5,3.5,37,0.00,CLR,,0.03,WeatherDisplay:10.37,2013-04-24 00:59:00,
2013-04-23 19:04:00,44.4,19.7,29.57,WSW,248,4.6,4.6,37,0.00,CLR,,0.03,WeatherDisplay:10.37,2013-04-24 01:04:00,
2013-04-23 19:09:00,43.9,21.1,29.57,SW,225,0.0,1.1,40,0.00,CLR,,0.03,WeatherDisplay:10.37,2013-04-24 01:09:00,
2013-04-23 19:14:00,43.5,20.8,29.57,WSW,248,4.6,4.6,40,0.00,CLR,,0.03,WeatherDisplay:10.37,2013-04-24 01:14:00,
2013-04-23 19:19:00,43.3,21.2,29.53,East,90,0.0,0.5,41,0.00,CLR,,0.03,WeatherDisplay:10.37,2013-04-24 01:19:00,
2013-04-23 19:24:00,43.0,22.0,29.53,SSW,202,3.5,3.5,43,0.00,CLR,,0.03,WeatherDisplay:10.37,2013-04-24 01:24:00,
2013-04-23 19:29:00,42.6,22.7,29.53,SSW,202,0.0,1.1,45,0.00,CLR,,0.03,WeatherDisplay:10.37,2013-04-24 01:29:00,
2013-04-23 19:34:00,42.3,22.4,29.53,SSW,202,3.5,3.5,45,0.00,CLR,,0.03,WeatherDisplay:10.37,2013-04-24 01:34:00,
2013-04-23 19:39:00,42.1,22.8,29.52,SSW,202,3.5,3.5,46,0.00,CLR,,0.03,WeatherDisplay:10.37,2013-04-24 01:39:00,
2013-04-23 19:44:00,41.9,22.6,29.52,SW,225,0.0,0.9,46,0.00,CLR,,0.03,WeatherDisplay:10.37,2013-04-24 01:44:00,
2013-04-23 19:49:00,41.5,22.8,29.52,SW,225,0.0,0.5,47,0.00,CLR,,0.03,WeatherDisplay:10.37,2013-04-24 01:49:00,
2013-04-23 19:54:00,41.5,22.8,29.52,NW,315,0.0,0.3,47,0.00,CLR,,0.03,WeatherDisplay:10.37,2013-04-24 01:54:00,
2013-04-23 20:00:00,41.2,23.0,29.52,South,180,1.5,1.5,48,0.00,CLR,,0.03,WeatherDisplay:10.37,2013-04-24 02:00:00,
2013-04-23 20:05:00,40.6,22.5,29.52,NNW,338,0.0,0.2,48,0.00,CLR,,0.03,WeatherDisplay:10.37,2013-04-24 02:05:00,
2013-04-23 20:10:00,40.5,22.8,29.52,ENE,68,0.0,0.1,49,0.00,CLR,,0.03,WeatherDisplay:10.37,2013-04-24 02:10:00,
2013-04-23 20:15:00,39.9,22.8,29.52,ENE,68,0.0,0.0,50,0.00,CLR,,0.03,WeatherDisplay:10.37,2013-04-24 02:15:00,
2013-04-23 20:20:00,39.6,22.9,29.51,NE,45,0.0,0.0,51,0.00,CLR,,0.03,WeatherDisplay:10.37,2013-04-24 02:20:00,
2013-04-23 20:25:00,39.2,23.0,29.51,ENE,68,0.0,0.0,52,0.00,CLR,,0.03,WeatherDisplay:10.37,2013-04-24 02:25:00,
2013-04-23 20:30:00,38.7,22.5,29.51,NE,45,0.0,0.0,52,0.00,CLR,,0.03,WeatherDisplay:10.37,2013-04-24 02:30:00,
2013-04-23 20:35:00,38.3,22.6,29.51,SE,135,0.0,0.0,53,0.00,CLR,,0.03,WeatherDisplay:10.37,2013-04-24 02:35:00,
2013-04-23 20:40:00,37.8,22.1,29.53,WSW,248,1.1,1.1,53,0.00,CLR,,0.03,WeatherDisplay:10.37,2013-04-24 02:40:00,
2013-04-23 20:45:00,37.2,22.5,29.53,NE,45,0.0,0.3,55,0.00,CLR,,0.03,WeatherDisplay:10.37,2013-04-24 02:45:00,
2013-04-23 20:50:00,37.2,22.1,29.53,ENE,68,0.0,0.0,54,0.00,CLR,,0.03,WeatherDisplay:10.37,2013-04-24 02:50:00,
2013-04-23 20:55:00,36.9,22.2,29.52,NE,45,0.0,0.0,55,0.00,CLR,,0.03,WeatherDisplay:10.37,2013-04-24 02:55:00,
2013-04-23 21:00:00,36.9,22.6,29.52,North,0,0.0,0.0,56,0.00,CLR,,0.03,WeatherDisplay:10.37,2013-04-24 03:00:00,
2013-04-23 21:05:00,36.3,22.5,29.52,East,90,0.0,0.0,57,0.00,CLR,,0.03,WeatherDisplay:10.37,2013-04-24 03:05:00,
2013-04-23 21:10:00,36.3,22.5,29.52,NE,45,0.0,0.0,57,0.00,CLR,,0.03,WeatherDisplay:10.37,2013-04-24 03:10:00,
2013-04-23 21:15:00,36.1,22.4,29.54,NNW,338,0.0,0.0,57,0.00,CLR,,0.03,WeatherDisplay:10.37,2013-04-24 03:15:00,
2013-04-23 21:20:00,36.1,22.8,29.54,NE,45,0.0,0.0,58,0.00,CLR,,0.03,WeatherDisplay:10.37,2013-04-24 03:20:00,
2013-04-23 21:25:00,35.8,22.4,29.54,NE,45,0.0,0.0,58,0.00,CLR,,0.03,WeatherDisplay:10.37,2013-04-24 03:25:00,
2013-04-23 21:30:00,35.4,22.5,29.54,NE,45,0.0,0.0,59,0.00,CLR,,0.03,WeatherDisplay:10.37,2013-04-24 03:30:00,
2013-04-23 21:35:00,34.9,22.0,29.54,North,0,0.0,0.0,59,0.00,CLR,,0.03,WeatherDisplay:10.37,2013-04-24 03:35:00,
2013-04-23 21:40:00,34.7,21.8,29.54,North,0,0.0,0.0,59,0.00,CLR,,0.03,WeatherDisplay:10.37,2013-04-24 03:40:00,
2013-04-23 21:45:00,34.2,21.7,29.54,North,0,0.0,0.0,60,0.00,CLR,,0.03,WeatherDisplay:10.37,2013-04-24 03:45:00,
2013-04-23 21:52:00,33.6,21.2,29.54,NE,45,0.0,0.0,60,0.00,CLR,,0.03,WeatherDisplay:10.37,2013-04-24 03:52:00,
2013-04-23 21:57:00,33.4,21.4,29.54,ENE,68,0.0,0.0,61,0.00,CLR,,0.03,WeatherDisplay:10.37,2013-04-24 03:57:00,
2013-04-23 22:01:00,33.3,21.3,29.54,ENE,68,0.0,0.0,61,0.00,CLR,,0.03,WeatherDisplay:10.37,2013-04-24 04:01:00,
2013-04-23 22:02:00,33.3,21.3,29.54,NE,45,0.0,0.0,61,0.00,CLR,,0.03,WeatherDisplay:10.37,2013-04-24 04:02:00,
2013-04-23 22:03:00,33.3,21.3,29.54,NE,45,0.0,0.0,61,0.00,CLR,,0.03,WeatherDisplay:10.37,2013-04-24 04:03:00,
2013-04-23 22:05:00,32.9,20.9,29.54,NE,45,0.0,0.0,61,0.00,CLR,,0.03,WeatherDisplay:10.37,2013-04-24 04:05:00,
2013-04-23 22:10:00,32.7,21.1,29.54,North,0,0.0,0.0,62,0.00,CLR,,0.03,WeatherDisplay:10.37,2013-04-24 04:10:00,
2013-04-23 22:15:00,32.7,21.1,29.54,NE,45,0.0,0.0,62,0.00,CLR,,0.03,WeatherDisplay:10.37,2013-04-24 04:15:00,
2013-04-23 22:20:00,32.4,20.8,29.55,North,0,0.0,0.0,62,0.00,CLR,,0.03,WeatherDisplay:10.37,2013-04-24 04:20:00,
2013-04-23 22:25:00,32.2,20.6,29.55,North,0,0.0,0.0,62,0.00,CLR,,0.03,WeatherDisplay:10.37,2013-04-24 04:25:00,
2013-04-23 22:30:00,31.8,20.6,29.55,NNE,22,0.0,0.0,63,0.00,CLR,,0.03,WeatherDisplay:10.37,2013-04-24 04:30:00,
2013-04-23 22:35:00,31.8,20.6,29.55,NE,45,0.0,0.0,63,0.00,CLR,,0.03,WeatherDisplay:10.37,2013-04-24 04:35:00,
2013-04-23 22:40:00,31.3,20.5,29.56,NE,45,0.0,0.0,64,0.00,CLR,,0.03,WeatherDisplay:10.37,2013-04-24 04:40:00,
2013-04-23 22:45:00,31.1,20.3,29.56,North,0,0.0,0.0,64,0.00,CLR,,0.03,WeatherDisplay:10.37,2013-04-24 04:45:00,
2013-04-23 22:50:00,30.9,20.2,29.56,North,0,0.0,0.0,64,0.00,CLR,,0.03,WeatherDisplay:10.37,2013-04-24 04:50:00,
2013-04-23 22:55:00,30.7,20.0,29.56,NE,45,0.0,0.0,64,0.00,CLR,,0.03,WeatherDisplay:10.37,2013-04-24 04:55:00,
2013-04-23 23:00:00,30.4,19.6,29.55,North,0,0.0,0.0,64,0.00,CLR,,0.03,WeatherDisplay:10.37,2013-04-24 05:00:00,
2013-04-23 23:05:00,30.4,19.6,29.55,NE,45,0.0,0.0,64,0.00,CLR,,0.03,WeatherDisplay:10.37,2013-04-24 05:05:00,
2013-04-23 23:10:00,30.0,19.7,29.55,NNE,22,0.0,0.0,65,0.00,CLR,,0.03,WeatherDisplay:10.37,2013-04-24 05:10:00,
2013-04-23 23:15:00,30.0,19.7,29.55,North,0,0.0,0.0,65,0.00,CLR,,0.03,WeatherDisplay:10.37,2013-04-24 05:15:00,
2013-04-23 23:20:00,29.8,19.5,29.57,NE,45,0.0,0.0,65,0.00,CLR,,0.03,WeatherDisplay:10.37,2013-04-24 05:20:00,
2013-04-23 23:25:00,29.7,19.7,29.57,North,0,0.0,0.0,66,0.00,CLR,,0.03,WeatherDisplay:10.37,2013-04-24 05:25:00,
2013-04-23 23:30:00,29.7,19.7,29.57,NNE,22,0.0,0.0,66,0.00,CLR,,0.03,WeatherDisplay:10.37,2013-04-24 05:30:00,
2013-04-23 23:35:00,29.7,19.7,29.57,North,0,0.0,0.0,66,0.00,CLR,,0.03,WeatherDisplay:10.37,2013-04-24 05:35:00,
2013-04-23 23:40:00,29.7,19.7,29.56,North,0,0.0,0.0,66,0.00,CLR,,0.03,WeatherDisplay:10.37,2013-04-24 05:40:00,
2013-04-23 23:45:00,29.7,19.7,29.56,North,0,0.0,0.0,66,0.00,CLR,,0.03,WeatherDisplay:10.37,2013-04-24 05:45:00,
2013-04-23 23:50:00,29.3,19.3,29.56,NNW,338,0.0,0.0,66,0.00,CLR,,0.03,WeatherDisplay:10.37,2013-04-24 05:50:00,
2013-04-23 23:55:00,29.3,19.7,29.56,North,0,0.0,0.0,67,0.00,CLR,,0.03,WeatherDisplay:10.37,2013-04-24 05:55:00,